sensor_id;sensor_type;location;lat;lon;timestamp;P1;durP1;ratioP1;P2;durP2;ratioP2
75156;SDS011;63736;50.076;8.198;2023-06-26T00:01:43;1957.73;;;700.57;;
75156;SDS011;63736;50.076;8.198;2023-06-26T00:04:08;1964.73;;;705.50;;
75156;SDS011;63736;50.076;8.198;2023-06-26T00:06:39;1945.15;;;687.70;;
75156;SDS011;63736;50.076;8.198;2023-06-26T00:09:04;1915.47;;;672.83;;
75156;SDS011;63736;50.076;8.198;2023-06-26T00:11:29;1901.23;;;666.63;;
75156;SDS011;63736;50.076;8.198;2023-06-26T00:13:58;1905.28;;;663.42;;
75156;SDS011;63736;50.076;8.198;2023-06-26T00:16:25;1884.53;;;658.63;;
75156;SDS011;63736;50.076;8.198;2023-06-26T00:18:50;1884.90;;;655.30;;
75156;SDS011;63736;50.076;8.198;2023-06-26T00:21:15;1879.80;;;657.80;;
75156;SDS011;63736;50.076;8.198;2023-06-26T00:23:40;1860.50;;;653.90;;
75156;SDS011;63736;50.076;8.198;2023-06-26T00:26:06;1867.87;;;662.83;;
75156;SDS011;63736;50.076;8.198;2023-06-26T00:28:31;1874.13;;;664.43;;
75156;SDS011;63736;50.076;8.198;2023-06-26T00:30:56;1881.00;;;672.93;;
75156;SDS011;63736;50.076;8.198;2023-06-26T00:33:21;1882.43;;;679.27;;
75156;SDS011;63736;50.076;8.198;2023-06-26T00:35:47;1873.30;;;683.40;;
75156;SDS011;63736;50.076;8.198;2023-06-26T00:38:12;1864.50;;;683.20;;
75156;SDS011;63736;50.076;8.198;2023-06-26T00:40:37;1869.37;;;691.50;;
75156;SDS011;63736;50.076;8.198;2023-06-26T00:43:03;1867.93;;;687.23;;
75156;SDS011;63736;50.076;8.198;2023-06-26T00:45:28;1875.47;;;690.40;;
75156;SDS011;63736;50.076;8.198;2023-06-26T00:47:53;1868.67;;;691.33;;
75156;SDS011;63736;50.076;8.198;2023-06-26T00:50:18;1854.47;;;683.23;;
75156;SDS011;63736;50.076;8.198;2023-06-26T00:52:44;1864.10;;;693.20;;
75156;SDS011;63736;50.076;8.198;2023-06-26T00:55:09;1875.60;;;701.40;;
75156;SDS011;63736;50.076;8.198;2023-06-26T00:57:35;1877.33;;;708.80;;
75156;SDS011;63736;50.076;8.198;2023-06-26T01:00:01;1896.43;;;721.80;;
75156;SDS011;63736;50.076;8.198;2023-06-26T01:02:29;1901.55;;;734.40;;
75156;SDS011;63736;50.076;8.198;2023-06-26T01:04:59;1896.53;;;736.27;;
75156;SDS011;63736;50.076;8.198;2023-06-26T01:07:28;1880.55;;;729.95;;
75156;SDS011;63736;50.076;8.198;2023-06-26T01:09:54;1886.05;;;734.08;;
75156;SDS011;63736;50.076;8.198;2023-06-26T01:12:19;1878.97;;;740.13;;
75156;SDS011;63736;50.076;8.198;2023-06-26T01:14:44;1882.63;;;740.57;;
75156;SDS011;63736;50.076;8.198;2023-06-26T01:17:10;1864.13;;;733.10;;
75156;SDS011;63736;50.076;8.198;2023-06-26T01:19:40;1874.82;;;741.08;;
75156;SDS011;63736;50.076;8.198;2023-06-26T01:27:50;1836.73;;;721.30;;
75156;SDS011;63736;50.076;8.198;2023-06-26T01:30:18;1843.30;;;716.63;;
75156;SDS011;63736;50.076;8.198;2023-06-26T01:32:45;1838.22;;;717.17;;
75156;SDS011;63736;50.076;8.198;2023-06-26T01:35:12;1832.43;;;713.33;;
75156;SDS011;63736;50.076;8.198;2023-06-26T01:37:39;1847.13;;;720.05;;
75156;SDS011;63736;50.076;8.198;2023-06-26T01:40:04;1835.20;;;719.70;;
75156;SDS011;63736;50.076;8.198;2023-06-26T01:42:31;1843.63;;;722.83;;
75156;SDS011;63736;50.076;8.198;2023-06-26T01:44:57;1849.17;;;730.87;;
75156;SDS011;63736;50.076;8.198;2023-06-26T01:47:47;1674.95;;;614.88;;
75156;SDS011;63736;50.076;8.198;2023-06-26T01:50:21;1004.22;;;250.02;;
75156;SDS011;63736;50.076;8.198;2023-06-26T01:53:32;922.60;;;227.38;;
75156;SDS011;63736;50.076;8.198;2023-06-26T01:55:51;904.60;;;222.90;;
75156;SDS011;63736;50.076;8.198;2023-06-26T01:58:21;893.93;;;220.73;;
75156;SDS011;63736;50.076;8.198;2023-06-26T02:00:48;891.58;;;217.85;;
75156;SDS011;63736;50.076;8.198;2023-06-26T02:03:14;874.33;;;215.77;;
75156;SDS011;63736;50.076;8.198;2023-06-26T02:05:39;885.53;;;219.00;;
75156;SDS011;63736;50.076;8.198;2023-06-26T02:08:04;889.27;;;220.10;;
75156;SDS011;63736;50.076;8.198;2023-06-26T02:10:30;897.00;;;219.67;;
75156;SDS011;63736;50.076;8.198;2023-06-26T02:12:56;912.03;;;224.80;;
75156;SDS011;63736;50.076;8.198;2023-06-26T02:15:21;920.53;;;227.67;;
75156;SDS011;63736;50.076;8.198;2023-06-26T02:17:46;922.77;;;225.97;;
75156;SDS011;63736;50.076;8.198;2023-06-26T02:20:13;945.30;;;231.43;;
75156;SDS011;63736;50.076;8.198;2023-06-26T02:22:39;956.27;;;234.27;;
75156;SDS011;63736;50.076;8.198;2023-06-26T02:25:04;960.67;;;233.07;;
75156;SDS011;63736;50.076;8.198;2023-06-26T02:27:30;954.17;;;233.20;;
75156;SDS011;63736;50.076;8.198;2023-06-26T02:29:55;950.30;;;231.97;;
75156;SDS011;63736;50.076;8.198;2023-06-26T02:32:20;950.63;;;231.50;;
75156;SDS011;63736;50.076;8.198;2023-06-26T02:34:46;948.27;;;231.37;;
75156;SDS011;63736;50.076;8.198;2023-06-26T02:37:11;946.20;;;230.70;;
75156;SDS011;63736;50.076;8.198;2023-06-26T02:39:36;944.37;;;229.33;;
75156;SDS011;63736;50.076;8.198;2023-06-26T02:42:01;942.70;;;229.90;;
75156;SDS011;63736;50.076;8.198;2023-06-26T02:44:27;946.60;;;230.70;;
75156;SDS011;63736;50.076;8.198;2023-06-26T02:46:52;947.27;;;232.30;;
75156;SDS011;63736;50.076;8.198;2023-06-26T02:49:17;944.60;;;231.13;;
75156;SDS011;63736;50.076;8.198;2023-06-26T02:51:43;941.10;;;230.33;;
75156;SDS011;63736;50.076;8.198;2023-06-26T02:54:08;937.13;;;228.03;;
75156;SDS011;63736;50.076;8.198;2023-06-26T02:56:33;941.13;;;230.27;;
75156;SDS011;63736;50.076;8.198;2023-06-26T02:58:58;952.40;;;232.60;;
75156;SDS011;63736;50.076;8.198;2023-06-26T03:01:24;983.83;;;239.30;;
75156;SDS011;63736;50.076;8.198;2023-06-26T03:03:49;995.63;;;242.20;;
75156;SDS011;63736;50.076;8.198;2023-06-26T03:06:15;981.27;;;238.63;;
75156;SDS011;63736;50.076;8.198;2023-06-26T03:08:40;1005.00;;;243.33;;
75156;SDS011;63736;50.076;8.198;2023-06-26T03:11:06;1023.90;;;249.63;;
75156;SDS011;63736;50.076;8.198;2023-06-26T03:13:33;1018.00;;;247.20;;
75156;SDS011;63736;50.076;8.198;2023-06-26T03:15:59;1018.60;;;256.48;;
75156;SDS011;63736;50.076;8.198;2023-06-26T03:18:25;1014.55;;;250.95;;
75156;SDS011;63736;50.076;8.198;2023-06-26T03:20:50;1011.67;;;246.97;;
75156;SDS011;63736;50.076;8.198;2023-06-26T03:23:15;1011.87;;;246.47;;
75156;SDS011;63736;50.076;8.198;2023-06-26T03:25:41;1008.70;;;244.93;;
75156;SDS011;63736;50.076;8.198;2023-06-26T03:28:06;1019.27;;;248.43;;
75156;SDS011;63736;50.076;8.198;2023-06-26T03:30:31;1020.70;;;249.17;;
75156;SDS011;63736;50.076;8.198;2023-06-26T03:32:56;1013.17;;;246.60;;
75156;SDS011;63736;50.076;8.198;2023-06-26T03:35:22;1005.30;;;244.05;;
75156;SDS011;63736;50.076;8.198;2023-06-26T03:37:48;1003.97;;;245.63;;
75156;SDS011;63736;50.076;8.198;2023-06-26T03:40:13;991.70;;;241.50;;
75156;SDS011;63736;50.076;8.198;2023-06-26T03:42:39;991.70;;;240.57;;
75156;SDS011;63736;50.076;8.198;2023-06-26T03:45:04;978.90;;;237.67;;
75156;SDS011;63736;50.076;8.198;2023-06-26T03:47:30;969.08;;;236.55;;
75156;SDS011;63736;50.076;8.198;2023-06-26T03:49:55;960.20;;;233.80;;
75156;SDS011;63736;50.076;8.198;2023-06-26T03:52:21;954.63;;;232.30;;
75156;SDS011;63736;50.076;8.198;2023-06-26T03:54:46;953.93;;;231.97;;
75156;SDS011;63736;50.076;8.198;2023-06-26T03:57:11;949.53;;;231.83;;
75156;SDS011;63736;50.076;8.198;2023-06-26T03:59:36;945.00;;;230.40;;
75156;SDS011;63736;50.076;8.198;2023-06-26T04:02:02;945.73;;;231.83;;
75156;SDS011;63736;50.076;8.198;2023-06-26T04:04:28;942.10;;;230.07;;
75156;SDS011;63736;50.076;8.198;2023-06-26T04:06:53;944.90;;;231.73;;
75156;SDS011;63736;50.076;8.198;2023-06-26T04:09:18;949.13;;;232.97;;
75156;SDS011;63736;50.076;8.198;2023-06-26T04:11:44;947.17;;;230.93;;
75156;SDS011;63736;50.076;8.198;2023-06-26T04:14:09;941.70;;;229.80;;
75156;SDS011;63736;50.076;8.198;2023-06-26T04:16:35;940.80;;;230.20;;
75156;SDS011;63736;50.076;8.198;2023-06-26T04:19:00;945.47;;;230.43;;
75156;SDS011;63736;50.076;8.198;2023-06-26T04:21:27;969.00;;;234.80;;
75156;SDS011;63736;50.076;8.198;2023-06-26T04:23:52;1029.03;;;249.23;;
75156;SDS011;63736;50.076;8.198;2023-06-26T04:26:18;1042.57;;;251.03;;
75156;SDS011;63736;50.076;8.198;2023-06-26T04:28:43;1044.87;;;250.90;;
75156;SDS011;63736;50.076;8.198;2023-06-26T04:31:09;992.27;;;237.33;;
75156;SDS011;63736;50.076;8.198;2023-06-26T04:33:35;979.72;;;235.57;;
75156;SDS011;63736;50.076;8.198;2023-06-26T04:36:01;981.40;;;236.45;;
75156;SDS011;63736;50.076;8.198;2023-06-26T04:38:33;956.13;;;229.60;;
75156;SDS011;63736;50.076;8.198;2023-06-26T04:40:59;972.13;;;233.87;;
75156;SDS011;63736;50.076;8.198;2023-06-26T04:43:25;919.80;;;223.25;;
75156;SDS011;63736;50.076;8.198;2023-06-26T04:45:50;911.03;;;221.37;;
75156;SDS011;63736;50.076;8.198;2023-06-26T04:48:15;871.97;;;212.23;;
75156;SDS011;63736;50.076;8.198;2023-06-26T04:50:40;871.55;;;211.57;;
75156;SDS011;63736;50.076;8.198;2023-06-26T04:53:06;859.97;;;208.27;;
75156;SDS011;63736;50.076;8.198;2023-06-26T04:55:31;851.13;;;207.17;;
75156;SDS011;63736;50.076;8.198;2023-06-26T04:57:56;864.80;;;210.73;;
75156;SDS011;63736;50.076;8.198;2023-06-26T05:00:22;951.23;;;230.27;;
75156;SDS011;63736;50.076;8.198;2023-06-26T05:02:47;946.05;;;230.55;;
75156;SDS011;63736;50.076;8.198;2023-06-26T05:05:13;937.73;;;229.67;;
75156;SDS011;63736;50.076;8.198;2023-06-26T05:07:38;939.27;;;229.73;;
75156;SDS011;63736;50.076;8.198;2023-06-26T05:10:06;918.33;;;224.70;;
75156;SDS011;63736;50.076;8.198;2023-06-26T05:12:31;909.92;;;222.23;;
75156;SDS011;63736;50.076;8.198;2023-06-26T05:14:57;888.03;;;216.50;;
75156;SDS011;63736;50.076;8.198;2023-06-26T05:17:22;909.40;;;224.43;;
75156;SDS011;63736;50.076;8.198;2023-06-26T05:19:47;944.67;;;230.67;;
75156;SDS011;63736;50.076;8.198;2023-06-26T05:22:12;964.83;;;236.97;;
75156;SDS011;63736;50.076;8.198;2023-06-26T05:24:38;994.10;;;241.60;;
75156;SDS011;63736;50.076;8.198;2023-06-26T05:27:04;980.97;;;239.15;;
75156;SDS011;63736;50.076;8.198;2023-06-26T05:29:30;976.70;;;238.32;;
75156;SDS011;63736;50.076;8.198;2023-06-26T05:31:56;959.00;;;234.77;;
75156;SDS011;63736;50.076;8.198;2023-06-26T05:34:23;902.20;;;223.73;;
75156;SDS011;63736;50.076;8.198;2023-06-26T05:36:50;958.80;;;237.55;;
75156;SDS011;63736;50.076;8.198;2023-06-26T05:39:16;1116.20;;;271.42;;
75156;SDS011;63736;50.076;8.198;2023-06-26T05:41:43;1061.35;;;260.38;;
75156;SDS011;63736;50.076;8.198;2023-06-26T05:44:09;1025.55;;;250.82;;
75156;SDS011;63736;50.076;8.198;2023-06-26T05:46:34;1003.93;;;246.70;;
75156;SDS011;63736;50.076;8.198;2023-06-26T05:49:00;1007.87;;;249.27;;
75156;SDS011;63736;50.076;8.198;2023-06-26T05:51:26;1012.80;;;250.13;;
75156;SDS011;63736;50.076;8.198;2023-06-26T05:53:52;1016.13;;;249.90;;
75156;SDS011;63736;50.076;8.198;2023-06-26T05:56:17;1027.70;;;255.02;;
75156;SDS011;63736;50.076;8.198;2023-06-26T05:58:43;1015.50;;;250.83;;
75156;SDS011;63736;50.076;8.198;2023-06-26T06:01:09;1005.63;;;249.25;;
75156;SDS011;63736;50.076;8.198;2023-06-26T06:03:34;1000.13;;;247.27;;
75156;SDS011;63736;50.076;8.198;2023-06-26T06:05:59;1059.53;;;257.57;;
75156;SDS011;63736;50.076;8.198;2023-06-26T06:08:24;828.37;;;209.47;;
75156;SDS011;63736;50.076;8.198;2023-06-26T06:10:50;721.80;;;187.37;;
75156;SDS011;63736;50.076;8.198;2023-06-26T06:13:15;705.20;;;182.80;;
75156;SDS011;63736;50.076;8.198;2023-06-26T06:15:40;736.30;;;191.23;;
75156;SDS011;63736;50.076;8.198;2023-06-26T06:18:06;744.33;;;193.07;;
75156;SDS011;63736;50.076;8.198;2023-06-26T06:20:31;726.60;;;188.83;;
75156;SDS011;63736;50.076;8.198;2023-06-26T06:22:56;726.97;;;189.20;;
75156;SDS011;63736;50.076;8.198;2023-06-26T06:25:22;727.23;;;190.40;;
75156;SDS011;63736;50.076;8.198;2023-06-26T06:27:47;718.93;;;189.47;;
75156;SDS011;63736;50.076;8.198;2023-06-26T06:30:12;723.13;;;191.33;;
75156;SDS011;63736;50.076;8.198;2023-06-26T06:32:38;709.17;;;188.18;;
75156;SDS011;63736;50.076;8.198;2023-06-26T06:35:03;720.77;;;188.43;;
75156;SDS011;63736;50.076;8.198;2023-06-26T06:37:34;735.75;;;192.98;;
75156;SDS011;63736;50.076;8.198;2023-06-26T06:39:59;727.70;;;190.87;;
75156;SDS011;63736;50.076;8.198;2023-06-26T06:42:25;725.03;;;190.87;;
75156;SDS011;63736;50.076;8.198;2023-06-26T06:44:50;736.30;;;193.57;;
75156;SDS011;63736;50.076;8.198;2023-06-26T06:47:15;768.07;;;201.27;;
75156;SDS011;63736;50.076;8.198;2023-06-26T06:49:40;763.10;;;202.83;;
75156;SDS011;63736;50.076;8.198;2023-06-26T06:52:06;746.00;;;198.20;;
75156;SDS011;63736;50.076;8.198;2023-06-26T06:54:31;703.73;;;186.77;;
75156;SDS011;63736;50.076;8.198;2023-06-26T06:56:56;688.40;;;181.70;;
75156;SDS011;63736;50.076;8.198;2023-06-26T06:59:22;674.80;;;177.90;;
75156;SDS011;63736;50.076;8.198;2023-06-26T07:01:47;675.53;;;179.60;;
75156;SDS011;63736;50.076;8.198;2023-06-26T07:04:12;676.43;;;180.07;;
75156;SDS011;63736;50.076;8.198;2023-06-26T07:06:37;677.57;;;180.00;;
75156;SDS011;63736;50.076;8.198;2023-06-26T07:09:03;671.67;;;178.27;;
75156;SDS011;63736;50.076;8.198;2023-06-26T07:11:28;668.57;;;178.87;;
75156;SDS011;63736;50.076;8.198;2023-06-26T07:13:54;663.50;;;175.93;;
75156;SDS011;63736;50.076;8.198;2023-06-26T07:16:20;659.47;;;174.30;;
75156;SDS011;63736;50.076;8.198;2023-06-26T07:18:46;657.90;;;176.90;;
75156;SDS011;63736;50.076;8.198;2023-06-26T07:21:11;649.00;;;173.67;;
75156;SDS011;63736;50.076;8.198;2023-06-26T07:23:36;633.92;;;168.60;;
75156;SDS011;63736;50.076;8.198;2023-06-26T07:26:01;627.97;;;167.77;;
75156;SDS011;63736;50.076;8.198;2023-06-26T07:28:27;615.30;;;164.67;;
75156;SDS011;63736;50.076;8.198;2023-06-26T07:30:52;613.73;;;163.67;;
75156;SDS011;63736;50.076;8.198;2023-06-26T07:33:18;621.97;;;168.27;;
75156;SDS011;63736;50.076;8.198;2023-06-26T07:35:43;626.53;;;169.63;;
75156;SDS011;63736;50.076;8.198;2023-06-26T07:38:08;627.07;;;167.97;;
75156;SDS011;63736;50.076;8.198;2023-06-26T07:40:34;625.80;;;167.83;;
75156;SDS011;63736;50.076;8.198;2023-06-26T07:42:59;625.33;;;167.60;;
75156;SDS011;63736;50.076;8.198;2023-06-26T07:45:24;625.67;;;168.53;;
75156;SDS011;63736;50.076;8.198;2023-06-26T07:47:50;617.00;;;166.33;;
75156;SDS011;63736;50.076;8.198;2023-06-26T07:50:15;604.23;;;164.27;;
75156;SDS011;63736;50.076;8.198;2023-06-26T07:52:47;602.08;;;162.13;;
75156;SDS011;63736;50.076;8.198;2023-06-26T07:55:12;610.77;;;165.30;;
75156;SDS011;63736;50.076;8.198;2023-06-26T07:57:38;619.43;;;165.37;;
75156;SDS011;63736;50.076;8.198;2023-06-26T08:00:03;624.75;;;166.45;;
75156;SDS011;63736;50.076;8.198;2023-06-26T08:02:31;630.20;;;165.20;;
75156;SDS011;63736;50.076;8.198;2023-06-26T08:04:57;644.80;;;169.40;;
75156;SDS011;63736;50.076;8.198;2023-06-26T08:07:22;658.80;;;172.60;;
75156;SDS011;63736;50.076;8.198;2023-06-26T08:09:47;663.90;;;173.47;;
75156;SDS011;63736;50.076;8.198;2023-06-26T08:12:12;675.33;;;175.70;;
75156;SDS011;63736;50.076;8.198;2023-06-26T08:14:38;672.20;;;176.00;;
75156;SDS011;63736;50.076;8.198;2023-06-26T08:17:04;672.35;;;175.35;;
75156;SDS011;63736;50.076;8.198;2023-06-26T08:19:29;665.13;;;174.33;;
75156;SDS011;63736;50.076;8.198;2023-06-26T08:21:54;659.93;;;175.10;;
75156;SDS011;63736;50.076;8.198;2023-06-26T08:24:19;654.27;;;173.87;;
75156;SDS011;63736;50.076;8.198;2023-06-26T08:26:45;663.73;;;177.20;;
75156;SDS011;63736;50.076;8.198;2023-06-26T08:29:11;658.47;;;174.75;;
75156;SDS011;63736;50.076;8.198;2023-06-26T08:31:37;645.13;;;172.77;;
75156;SDS011;63736;50.076;8.198;2023-06-26T08:34:03;633.78;;;167.68;;
75156;SDS011;63736;50.076;8.198;2023-06-26T08:36:29;639.83;;;171.13;;
75156;SDS011;63736;50.076;8.198;2023-06-26T08:38:55;646.33;;;170.35;;
75156;SDS011;63736;50.076;8.198;2023-06-26T08:41:20;664.37;;;175.43;;
75156;SDS011;63736;50.076;8.198;2023-06-26T08:43:45;669.43;;;175.50;;
75156;SDS011;63736;50.076;8.198;2023-06-26T08:46:11;676.37;;;175.57;;
75156;SDS011;63736;50.076;8.198;2023-06-26T08:48:36;681.10;;;177.00;;
75156;SDS011;63736;50.076;8.198;2023-06-26T08:51:08;676.50;;;176.45;;
75156;SDS011;63736;50.076;8.198;2023-06-26T08:53:40;675.22;;;177.88;;
75156;SDS011;63736;50.076;8.198;2023-06-26T08:56:24;670.30;;;175.48;;
75156;SDS011;63736;50.076;8.198;2023-06-26T08:58:51;666.93;;;174.00;;
75156;SDS011;63736;50.076;8.198;2023-06-26T09:01:17;667.28;;;175.25;;
75156;SDS011;63736;50.076;8.198;2023-06-26T09:03:44;665.97;;;174.57;;
75156;SDS011;63736;50.076;8.198;2023-06-26T09:06:09;670.30;;;175.73;;
75156;SDS011;63736;50.076;8.198;2023-06-26T09:08:35;667.20;;;174.80;;
75156;SDS011;63736;50.076;8.198;2023-06-26T09:11:00;666.80;;;175.70;;
75156;SDS011;63736;50.076;8.198;2023-06-26T09:13:25;659.17;;;172.10;;
75156;SDS011;63736;50.076;8.198;2023-06-26T09:15:53;652.45;;;170.75;;
75156;SDS011;63736;50.076;8.198;2023-06-26T09:18:20;656.08;;;173.20;;
75156;SDS011;63736;50.076;8.198;2023-06-26T09:20:46;658.85;;;173.07;;
75156;SDS011;63736;50.076;8.198;2023-06-26T09:23:12;665.30;;;173.13;;
75156;SDS011;63736;50.076;8.198;2023-06-26T09:25:38;670.70;;;175.27;;
75156;SDS011;63736;50.076;8.198;2023-06-26T09:28:05;666.58;;;173.52;;
75156;SDS011;63736;50.076;8.198;2023-06-26T09:30:34;665.23;;;173.10;;
75156;SDS011;63736;50.076;8.198;2023-06-26T09:33:13;665.65;;;173.73;;
75156;SDS011;63736;50.076;8.198;2023-06-26T09:35:40;667.65;;;175.45;;
75156;SDS011;63736;50.076;8.198;2023-06-26T09:38:05;667.97;;;173.80;;
75156;SDS011;63736;50.076;8.198;2023-06-26T09:40:30;671.50;;;175.30;;
75156;SDS011;63736;50.076;8.198;2023-06-26T09:43:02;666.95;;;171.95;;
75156;SDS011;63736;50.076;8.198;2023-06-26T09:45:28;670.53;;;172.37;;
75156;SDS011;63736;50.076;8.198;2023-06-26T09:47:53;678.17;;;173.53;;
75156;SDS011;63736;50.076;8.198;2023-06-26T09:50:22;688.40;;;176.00;;
75156;SDS011;63736;50.076;8.198;2023-06-26T09:52:50;692.53;;;177.00;;
75156;SDS011;63736;50.076;8.198;2023-06-26T09:55:16;694.05;;;177.40;;
75156;SDS011;63736;50.076;8.198;2023-06-26T09:57:44;702.22;;;180.63;;
75156;SDS011;63736;50.076;8.198;2023-06-26T10:00:12;698.35;;;180.25;;
75156;SDS011;63736;50.076;8.198;2023-06-26T10:02:38;694.17;;;178.88;;
75156;SDS011;63736;50.076;8.198;2023-06-26T10:05:03;688.93;;;178.27;;
75156;SDS011;63736;50.076;8.198;2023-06-26T10:07:30;683.60;;;176.67;;
75156;SDS011;63736;50.076;8.198;2023-06-26T10:09:56;678.92;;;175.48;;
75156;SDS011;63736;50.076;8.198;2023-06-26T10:12:25;674.03;;;177.88;;
75156;SDS011;63736;50.076;8.198;2023-06-26T10:14:53;672.75;;;175.82;;
75156;SDS011;63736;50.076;8.198;2023-06-26T10:17:21;673.78;;;174.95;;
75156;SDS011;63736;50.076;8.198;2023-06-26T10:19:48;675.40;;;173.67;;
75156;SDS011;63736;50.076;8.198;2023-06-26T10:22:17;677.55;;;174.75;;
75156;SDS011;63736;50.076;8.198;2023-06-26T10:24:45;681.05;;;179.20;;
75156;SDS011;63736;50.076;8.198;2023-06-26T10:27:17;678.20;;;176.80;;
75156;SDS011;63736;50.076;8.198;2023-06-26T10:29:53;682.33;;;177.38;;
75156;SDS011;63736;50.076;8.198;2023-06-26T10:32:20;685.67;;;177.10;;
75156;SDS011;63736;50.076;8.198;2023-06-26T10:34:47;688.10;;;177.25;;
75156;SDS011;63736;50.076;8.198;2023-06-26T10:37:13;695.15;;;180.00;;
75156;SDS011;63736;50.076;8.198;2023-06-26T10:39:50;697.77;;;178.07;;
75156;SDS011;63736;50.076;8.198;2023-06-26T10:42:19;704.05;;;181.48;;
75156;SDS011;63736;50.076;8.198;2023-06-26T10:44:58;704.23;;;180.03;;
75156;SDS011;63736;50.076;8.198;2023-06-26T10:47:34;708.45;;;180.52;;
75156;SDS011;63736;50.076;8.198;2023-06-26T10:53:14;743.95;;;189.63;;
75156;SDS011;63736;50.076;8.198;2023-06-26T10:55:41;755.55;;;190.48;;
75156;SDS011;63736;50.076;8.198;2023-06-26T10:58:29;760.00;;;191.73;;
75156;SDS011;63736;50.076;8.198;2023-06-26T11:04:04;826.78;;;207.45;;
75156;SDS011;63736;50.076;8.198;2023-06-26T11:06:32;910.58;;;227.82;;
75156;SDS011;63736;50.076;8.198;2023-06-26T11:14:24;904.25;;;224.15;;
75156;SDS011;63736;50.076;8.198;2023-06-26T11:16:51;894.38;;;222.60;;
75156;SDS011;63736;50.076;8.198;2023-06-26T11:19:17;890.95;;;221.35;;
75156;SDS011;63736;50.076;8.198;2023-06-26T11:21:44;881.83;;;219.23;;
75156;SDS011;63736;50.076;8.198;2023-06-26T11:24:10;873.87;;;217.10;;
75156;SDS011;63736;50.076;8.198;2023-06-26T11:26:40;874.50;;;217.45;;
75156;SDS011;63736;50.076;8.198;2023-06-26T11:29:07;865.17;;;214.95;;
75156;SDS011;63736;50.076;8.198;2023-06-26T11:31:33;852.10;;;211.98;;
75156;SDS011;63736;50.076;8.198;2023-06-26T11:34:05;848.97;;;212.23;;
75156;SDS011;63736;50.076;8.198;2023-06-26T11:36:32;822.00;;;205.23;;
75156;SDS011;63736;50.076;8.198;2023-06-26T11:39:01;815.55;;;204.35;;
75156;SDS011;63736;50.076;8.198;2023-06-26T11:41:29;815.78;;;205.25;;
75156;SDS011;63736;50.076;8.198;2023-06-26T11:43:56;814.90;;;205.68;;
75156;SDS011;63736;50.076;8.198;2023-06-26T11:46:26;815.03;;;206.77;;
75156;SDS011;63736;50.076;8.198;2023-06-26T11:48:51;809.67;;;202.83;;
75156;SDS011;63736;50.076;8.198;2023-06-26T11:51:17;813.10;;;204.15;;
75156;SDS011;63736;50.076;8.198;2023-06-26T11:53:42;811.30;;;204.00;;
75156;SDS011;63736;50.076;8.198;2023-06-26T11:56:11;811.33;;;203.35;;
75156;SDS011;63736;50.076;8.198;2023-06-26T12:01:38;817.03;;;204.47;;
75156;SDS011;63736;50.076;8.198;2023-06-26T12:04:08;813.80;;;203.32;;
75156;SDS011;63736;50.076;8.198;2023-06-26T12:06:36;813.85;;;205.60;;
75156;SDS011;63736;50.076;8.198;2023-06-26T12:09:04;813.05;;;204.95;;
75156;SDS011;63736;50.076;8.198;2023-06-26T12:11:32;805.50;;;201.15;;
75156;SDS011;63736;50.076;8.198;2023-06-26T12:13:59;800.53;;;200.67;;
75156;SDS011;63736;50.076;8.198;2023-06-26T12:16:26;801.72;;;200.48;;
75156;SDS011;63736;50.076;8.198;2023-06-26T12:18:57;800.33;;;202.02;;
75156;SDS011;63736;50.076;8.198;2023-06-26T12:24:07;866.35;;;215.55;;
75156;SDS011;63736;50.076;8.198;2023-06-26T12:26:34;870.33;;;216.27;;
75156;SDS011;63736;50.076;8.198;2023-06-26T12:29:03;872.63;;;216.25;;
75156;SDS011;63736;50.076;8.198;2023-06-26T12:31:28;871.53;;;217.23;;
75156;SDS011;63736;50.076;8.198;2023-06-26T12:33:54;873.50;;;216.27;;
75156;SDS011;63736;50.076;8.198;2023-06-26T12:36:20;871.83;;;216.77;;
75156;SDS011;63736;50.076;8.198;2023-06-26T12:38:45;867.70;;;213.43;;
75156;SDS011;63736;50.076;8.198;2023-06-26T12:41:11;879.07;;;216.90;;
75156;SDS011;63736;50.076;8.198;2023-06-26T12:43:38;876.35;;;215.70;;
75156;SDS011;63736;50.076;8.198;2023-06-26T12:46:04;875.63;;;217.18;;
75156;SDS011;63736;50.076;8.198;2023-06-26T12:48:39;876.60;;;217.17;;
75156;SDS011;63736;50.076;8.198;2023-06-26T12:51:15;879.35;;;219.27;;
75156;SDS011;63736;50.076;8.198;2023-06-26T12:53:42;868.85;;;215.35;;
75156;SDS011;63736;50.076;8.198;2023-06-26T12:56:08;864.63;;;212.85;;
75156;SDS011;63736;50.076;8.198;2023-06-26T12:58:34;867.30;;;214.07;;
75156;SDS011;63736;50.076;8.198;2023-06-26T13:01:04;872.63;;;215.20;;
75156;SDS011;63736;50.076;8.198;2023-06-26T13:03:30;865.38;;;213.90;;
75156;SDS011;63736;50.076;8.198;2023-06-26T13:05:56;862.28;;;213.23;;
75156;SDS011;63736;50.076;8.198;2023-06-26T13:08:21;859.57;;;212.57;;
75156;SDS011;63736;50.076;8.198;2023-06-26T13:10:46;861.30;;;213.77;;
75156;SDS011;63736;50.076;8.198;2023-06-26T13:13:12;860.27;;;213.07;;
75156;SDS011;63736;50.076;8.198;2023-06-26T13:15:37;856.27;;;211.33;;
75156;SDS011;63736;50.076;8.198;2023-06-26T13:18:02;857.45;;;211.05;;
75156;SDS011;63736;50.076;8.198;2023-06-26T13:20:28;863.23;;;213.67;;
75156;SDS011;63736;50.076;8.198;2023-06-26T13:22:53;862.73;;;213.27;;
75156;SDS011;63736;50.076;8.198;2023-06-26T13:25:19;857.15;;;213.13;;
75156;SDS011;63736;50.076;8.198;2023-06-26T13:27:45;856.00;;;211.23;;
75156;SDS011;63736;50.076;8.198;2023-06-26T13:30:10;854.85;;;211.77;;
75156;SDS011;63736;50.076;8.198;2023-06-26T13:32:36;852.20;;;209.97;;
75156;SDS011;63736;50.076;8.198;2023-06-26T13:35:02;896.77;;;220.67;;
75156;SDS011;63736;50.076;8.198;2023-06-26T13:37:28;919.25;;;224.40;;
75156;SDS011;63736;50.076;8.198;2023-06-26T13:39:53;905.57;;;222.50;;
75156;SDS011;63736;50.076;8.198;2023-06-26T13:42:18;888.67;;;218.73;;
75156;SDS011;63736;50.076;8.198;2023-06-26T13:44:44;876.20;;;214.63;;
75156;SDS011;63736;50.076;8.198;2023-06-26T13:47:13;875.50;;;214.55;;
75156;SDS011;63736;50.076;8.198;2023-06-26T13:49:39;870.63;;;214.53;;
75156;SDS011;63736;50.076;8.198;2023-06-26T13:52:04;884.97;;;216.57;;
75156;SDS011;63736;50.076;8.198;2023-06-26T13:54:33;880.65;;;216.07;;
75156;SDS011;63736;50.076;8.198;2023-06-26T13:57:00;878.88;;;216.82;;
75156;SDS011;63736;50.076;8.198;2023-06-26T13:59:27;865.20;;;212.75;;
75156;SDS011;63736;50.076;8.198;2023-06-26T14:01:52;937.07;;;228.07;;
75156;SDS011;63736;50.076;8.198;2023-06-26T14:04:17;936.70;;;228.57;;
75156;SDS011;63736;50.076;8.198;2023-06-26T14:06:43;931.73;;;227.37;;
75156;SDS011;63736;50.076;8.198;2023-06-26T14:09:10;927.70;;;225.75;;
75156;SDS011;63736;50.076;8.198;2023-06-26T14:11:35;935.10;;;227.40;;
75156;SDS011;63736;50.076;8.198;2023-06-26T14:14:01;937.50;;;226.73;;